createdAt,value
2024-01-01T00:01:47.525Z,7.06
2024-01-01T00:04:14.377Z,6.98
2024-01-01T00:06:41.128Z,7.03
2024-01-01T00:09:08.448Z,6.89
2024-01-01T00:11:37.360Z,6.91
2024-01-01T00:14:04.727Z,6.93
2024-01-01T00:16:33.115Z,6.97
2024-01-01T00:19:00.280Z,6.79
2024-01-01T00:21:28.278Z,6.80
2024-01-01T00:23:55.141Z,6.84
2024-01-01T00:26:22.131Z,6.91
2024-01-01T00:28:56.844Z,6.90
2024-01-01T00:31:23.874Z,6.89
2024-01-01T00:33:53.531Z,6.73
2024-01-01T00:36:20.287Z,6.83
2024-01-01T00:38:47.072Z,6.82
2024-01-01T00:41:17.753Z,6.77
2024-01-01T00:43:44.881Z,6.84
2024-01-01T00:46:12.097Z,6.73
2024-01-01T00:48:39.502Z,6.74
2024-01-01T00:51:06.303Z,6.76
2024-01-01T00:53:33.427Z,6.63
2024-01-01T00:56:00.221Z,6.75
2024-01-01T00:58:27.049Z,6.81
2024-01-01T01:00:54.005Z,6.80
2024-01-01T01:03:20.806Z,6.87
2024-01-01T01:05:49.988Z,6.89
2024-01-01T01:08:17.568Z,6.82
2024-01-01T01:10:44.365Z,6.91
2024-01-01T01:13:11.107Z,6.86
2024-01-01T01:15:37.883Z,6.80
2024-01-01T01:18:04.953Z,6.76
2024-01-01T01:20:31.879Z,6.75
2024-01-01T01:22:58.656Z,6.71
2024-01-01T01:25:25.776Z,6.78
2024-01-01T01:27:52.474Z,6.66
2024-01-01T01:30:19.511Z,6.71
2024-01-01T01:32:46.806Z,6.65
2024-01-01T01:35:13.619Z,6.69
2024-01-01T01:37:40.427Z,6.72
2024-01-01T01:40:07.894Z,6.72
2024-01-01T01:42:34.829Z,6.62
2024-01-01T01:45:01.549Z,6.63
2024-01-01T01:47:29.503Z,6.54
2024-01-01T01:49:56.478Z,6.63
2024-01-01T01:52:24.432Z,6.63
2024-01-01T01:54:52.776Z,6.60
2024-01-01T01:57:19.777Z,6.47
2024-01-01T01:59:46.751Z,6.37
2024-01-01T02:02:13.723Z,6.37
2024-01-01T02:04:40.667Z,6.43
2024-01-01T02:07:07.790Z,6.40
2024-01-01T02:09:34.632Z,6.33
2024-01-01T02:12:01.460Z,6.22
2024-01-01T02:14:28.310Z,6.20
2024-01-01T02:16:55.087Z,6.18
2024-01-01T02:19:24.127Z,6.05
2024-01-01T02:21:52.021Z,6.00
2024-01-01T02:24:19.029Z,5.98
2024-01-01T02:26:46.782Z,5.90
2024-01-01T02:29:13.891Z,5.95
2024-01-01T02:31:40.764Z,5.86
2024-01-01T02:34:07.533Z,5.91
2024-01-01T02:36:40.649Z,5.83
2024-01-01T02:39:08.304Z,5.72
2024-01-01T02:41:36.317Z,5.72
2024-01-01T02:44:03.989Z,5.61
2024-01-01T02:46:31.124Z,5.61
2024-01-01T02:48:58.006Z,5.64
2024-01-01T02:51:24.987Z,5.66
2024-01-01T02:53:52.220Z,5.57
2024-01-01T02:56:25.688Z,5.51
2024-01-01T02:58:53.287Z,5.47
2024-01-01T03:01:20.316Z,5.50
2024-01-01T03:03:47.057Z,5.38
2024-01-01T03:06:13.956Z,5.34
2024-01-01T03:08:40.700Z,5.32
2024-01-01T03:11:08.253Z,5.30
2024-01-01T03:13:35.422Z,5.32
2024-01-01T03:16:02.644Z,5.22
2024-01-01T03:18:29.715Z,5.27
2024-01-01T03:20:56.601Z,5.27
2024-01-01T03:23:23.412Z,5.17
2024-01-01T03:25:50.401Z,5.16
2024-01-01T03:28:17.936Z,5.18
2024-01-01T03:30:44.847Z,5.18
2024-01-01T03:33:11.808Z,5.12
2024-01-01T03:35:38.666Z,5.15
2024-01-01T03:38:05.714Z,5.06
2024-01-01T03:40:33.003Z,5.13
2024-01-01T03:43:01.439Z,5.06
2024-01-01T03:45:28.148Z,5.11
2024-01-01T03:47:55.038Z,5.10
2024-01-01T03:50:22.092Z,5.05
2024-01-01T03:52:48.971Z,5.06
2024-01-01T03:55:17.398Z,5.01
2024-01-01T03:57:44.258Z,5.11
2024-01-01T04:00:13.661Z,5.03
2024-01-01T04:02:42.041Z,5.04
2024-01-01T04:05:10.101Z,4.89
2024-01-01T04:07:37.865Z,4.86
2024-01-01T04:10:06.492Z,4.84
2024-01-01T04:12:33.315Z,4.98
2024-01-01T04:15:00.346Z,4.88
2024-01-01T04:17:27.169Z,4.99
2024-01-01T04:19:55.237Z,5.06
2024-01-01T04:22:25.958Z,5.17
2024-01-01T04:24:53.441Z,5.13
2024-01-01T04:27:20.676Z,5.16
2024-01-01T04:29:47.599Z,5.13
2024-01-01T04:32:14.514Z,5.02
2024-01-01T04:34:41.467Z,5.03
2024-01-01T04:37:10.526Z,5.16
2024-01-01T04:39:37.521Z,5.26
2024-01-01T04:42:04.753Z,5.31
2024-01-01T04:44:31.619Z,5.41
2024-01-01T04:46:58.450Z,5.45
2024-01-01T04:49:25.632Z,5.43
2024-01-01T04:51:52.338Z,5.43
2024-01-01T04:54:19.713Z,5.51
2024-01-01T04:56:46.450Z,5.52
2024-01-01T04:59:13.325Z,5.61
2024-01-01T05:01:40.240Z,5.69
2024-01-01T05:04:07.029Z,5.54
2024-01-01T05:06:33.742Z,5.66
2024-01-01T05:09:00.455Z,5.76
2024-01-01T05:11:27.202Z,5.80
2024-01-01T05:13:53.975Z,5.86
2024-01-01T05:16:20.741Z,5.88
2024-01-01T05:18:47.580Z,6.01
2024-01-01T05:21:14.335Z,6.00
2024-01-01T05:23:41.272Z,6.06
2024-01-01T05:26:08.363Z,6.05
2024-01-01T05:28:35.249Z,6.18
2024-01-01T05:31:02.040Z,6.20
2024-01-01T05:33:29.044Z,6.27
2024-01-01T05:35:55.828Z,6.21
2024-01-01T05:38:22.656Z,6.25
2024-01-01T05:40:49.514Z,6.35
2024-01-01T05:43:16.248Z,6.24
2024-01-01T05:45:42.987Z,6.38
2024-01-01T05:48:19.060Z,6.40
2024-01-01T05:50:52.787Z,6.42
2024-01-01T05:53:19.971Z,6.51
2024-01-01T05:55:46.758Z,6.42
2024-01-01T05:58:13.637Z,6.53
2024-01-01T06:00:41.691Z,6.53
2024-01-01T06:03:08.798Z,6.50
2024-01-01T06:05:36.882Z,6.59
2024-01-01T06:08:07.284Z,6.49
2024-01-01T06:10:35.858Z,6.29
2024-01-01T06:13:03.993Z,6.55
2024-01-01T06:15:30.852Z,6.53
2024-01-01T06:17:57.735Z,6.59
2024-01-01T06:20:24.672Z,6.68
2024-01-01T06:22:51.766Z,6.69
2024-01-01T06:25:19.582Z,6.81
2024-01-01T06:27:46.368Z,6.84
2024-01-01T06:30:13.135Z,6.91
2024-01-01T06:32:40.001Z,6.82
2024-01-01T06:35:06.897Z,6.86
2024-01-01T06:37:33.642Z,6.96
2024-01-01T06:40:00.788Z,6.93
2024-01-01T06:42:27.488Z,6.94
2024-01-01T06:44:57.562Z,6.77
2024-01-01T06:47:25.056Z,6.78
2024-01-01T06:49:52.254Z,6.78
2024-01-01T06:52:19.420Z,6.91
2024-01-01T06:54:46.115Z,6.92
2024-01-01T06:57:12.810Z,6.97
2024-01-01T06:59:39.604Z,7.00
2024-01-01T07:02:07.757Z,7.02
2024-01-01T07:04:34.789Z,6.93
2024-01-01T07:07:02.185Z,6.92
2024-01-01T07:09:28.874Z,6.95
2024-01-01T07:11:58.313Z,6.92
2024-01-01T07:14:25.544Z,6.91
2024-01-01T07:16:54.413Z,6.70
2024-01-01T07:19:21.260Z,6.91
2024-01-01T07:21:48.418Z,6.91
2024-01-01T07:24:15.834Z,6.91
2024-01-01T07:26:42.546Z,6.87
2024-01-01T07:29:09.353Z,6.89
2024-01-01T07:31:36.698Z,6.91
2024-01-01T07:34:04.442Z,6.92
2024-01-01T07:36:31.720Z,6.91
2024-01-01T07:38:58.601Z,6.90
2024-01-01T07:41:25.674Z,6.95
2024-01-01T07:43:52.615Z,6.90
2024-01-01T07:46:20.038Z,6.87
2024-01-01T07:48:47.316Z,6.97
2024-01-01T07:51:14.588Z,7.01
2024-01-01T07:53:43.264Z,7.07
2024-01-01T07:56:10.164Z,7.10
2024-01-01T07:58:36.921Z,7.13
2024-01-01T08:01:03.738Z,7.14
2024-01-01T08:03:30.519Z,7.13
2024-01-01T08:05:57.336Z,7.13
2024-01-01T08:08:24.123Z,7.23
2024-01-01T08:10:50.983Z,7.20
2024-01-01T08:13:17.711Z,7.39
2024-01-01T08:15:44.413Z,7.41
2024-01-01T08:18:11.519Z,7.47
2024-01-01T08:20:38.614Z,7.46
2024-01-01T08:23:05.480Z,7.41
2024-01-01T08:25:32.318Z,7.38
2024-01-01T08:27:59.591Z,7.53
2024-01-01T08:30:26.350Z,7.56
2024-01-01T08:32:53.179Z,7.67
2024-01-01T08:35:20.160Z,7.74
2024-01-01T08:37:49.055Z,7.71
2024-01-01T08:40:15.941Z,7.77
2024-01-01T08:42:42.753Z,7.87
2024-01-01T08:45:10.577Z,7.97
2024-01-01T08:47:39.798Z,7.95
2024-01-01T08:50:08.648Z,7.98
2024-01-01T08:52:35.978Z,8.05
2024-01-01T08:55:03.132Z,8.11
2024-01-01T08:57:29.855Z,8.11
2024-01-01T08:59:56.571Z,8.06
2024-01-01T09:02:23.330Z,8.09
2024-01-01T09:04:50.111Z,8.07
2024-01-01T09:07:17.278Z,8.11
2024-01-01T09:09:44.537Z,8.23
2024-01-01T09:12:11.229Z,8.23
2024-01-01T09:14:37.964Z,8.29
2024-01-01T09:17:09.327Z,8.30
2024-01-01T09:19:38.984Z,8.25
2024-01-01T09:22:05.937Z,8.36
2024-01-01T09:24:33.432Z,8.33
2024-01-01T09:27:00.863Z,8.26
2024-01-01T09:29:28.556Z,8.26
2024-01-01T09:31:55.293Z,8.17
2024-01-01T09:34:22.317Z,8.18
2024-01-01T09:36:57.454Z,8.16
2024-01-01T09:39:30.054Z,8.25
2024-01-01T09:41:57.071Z,8.28
2024-01-01T09:44:24.822Z,8.33
2024-01-01T09:46:51.584Z,8.52
2024-01-01T09:49:18.423Z,8.42
2024-01-01T09:51:46.005Z,8.37
2024-01-01T09:54:13.281Z,8.32
2024-01-01T09:56:39.991Z,8.47
2024-01-01T09:59:06.757Z,8.58
2024-01-01T10:01:34.582Z,8.63
2024-01-01T10:04:08.652Z,8.78
2024-01-01T10:06:40.116Z,8.80
2024-01-01T10:09:11.543Z,8.83
2024-01-01T10:11:45.752Z,8.82
2024-01-01T10:14:13.892Z,8.81
2024-01-01T10:16:40.935Z,8.89
2024-01-01T10:19:09.388Z,8.91
2024-01-01T10:21:38.196Z,8.83
2024-01-01T10:24:27.003Z,8.71
2024-01-01T10:27:02.146Z,8.73
2024-01-01T10:29:29.752Z,8.82
2024-01-01T10:31:57.068Z,8.84
2024-01-01T10:34:24.309Z,8.88
2024-01-01T10:36:51.536Z,8.86
2024-01-01T10:39:18.840Z,8.85
2024-01-01T10:41:48.301Z,8.80
2024-01-01T10:44:15.798Z,8.86
2024-01-01T10:46:49.314Z,8.92
2024-01-01T10:49:25.673Z,8.87
2024-01-01T10:51:58.332Z,8.97
2024-01-01T10:54:51.751Z,9.12
2024-01-01T10:57:39.604Z,9.13
2024-01-01T11:00:12.309Z,9.07
2024-01-01T11:02:39.989Z,9.22
2024-01-01T11:05:11.441Z,9.30
2024-01-01T11:07:57.144Z,9.33
2024-01-01T11:10:45.836Z,9.23
2024-01-01T11:13:31.437Z,9.27
2024-01-01T11:16:05.062Z,9.26
2024-01-01T11:18:33.663Z,9.36
2024-01-01T11:21:02.642Z,9.49
2024-01-01T11:23:42.125Z,9.55
2024-01-01T11:26:24.366Z,9.45
2024-01-01T11:28:55.761Z,9.39
2024-01-01T11:31:23.406Z,9.49
2024-01-01T11:34:07.171Z,9.52
2024-01-01T11:36:42.999Z,9.60
2024-01-01T11:39:10.208Z,9.55
2024-01-01T11:41:37.097Z,9.60
2024-01-01T11:44:14.164Z,9.60
2024-01-01T11:46:41.544Z,9.61
2024-01-01T11:49:11.391Z,9.56
2024-01-01T11:51:59.245Z,9.58
2024-01-01T11:54:28.475Z,9.61
2024-01-01T11:56:58.752Z,9.68
2024-01-01T11:59:26.576Z,9.66
2024-01-01T12:01:53.524Z,9.65
2024-01-01T12:04:21.081Z,9.72
2024-01-01T12:06:52.875Z,9.80
2024-01-01T12:09:22.552Z,9.87
2024-01-01T12:11:50.099Z,9.98
2024-01-01T12:14:24.941Z,10.06
2024-01-01T12:16:51.814Z,10.17
2024-01-01T12:19:24.210Z,10.10
2024-01-01T12:21:53.138Z,10.03
2024-01-01T12:24:20.569Z,10.04
2024-01-01T12:26:49.708Z,10.02
2024-01-01T12:29:18.765Z,10.05
2024-01-01T12:31:50.744Z,10.03
2024-01-01T12:34:19.265Z,9.96
2024-01-01T12:36:48.397Z,10.02
2024-01-01T12:39:19.028Z,9.94
2024-01-01T12:41:46.194Z,9.94
2024-01-01T12:44:13.057Z,9.85
2024-01-01T12:46:41.610Z,9.87
2024-01-01T12:49:08.548Z,9.76
2024-01-01T12:51:36.792Z,9.72
2024-01-01T12:54:05.166Z,9.68
2024-01-01T12:56:33.071Z,9.80
2024-01-01T12:58:59.805Z,9.74
2024-01-01T13:01:26.544Z,9.76
2024-01-01T13:03:53.587Z,9.68
2024-01-01T13:06:21.017Z,9.69
2024-01-01T13:08:49.147Z,9.70
2024-01-01T13:11:16.642Z,9.74
2024-01-01T13:13:43.810Z,9.66
2024-01-01T13:16:10.686Z,9.67
2024-01-01T13:18:37.674Z,9.63
2024-01-01T13:21:04.796Z,9.61
2024-01-01T13:23:31.850Z,9.67
2024-01-01T13:25:59.398Z,9.72
2024-01-01T13:28:26.415Z,9.55
2024-01-01T13:30:53.506Z,9.52
2024-01-01T13:33:20.937Z,9.53
2024-01-01T13:35:48.060Z,9.53
2024-01-01T13:38:14.905Z,9.50
2024-01-01T13:40:41.917Z,9.55
2024-01-01T13:43:12.065Z,9.59
2024-01-01T13:45:39.889Z,9.75
2024-01-01T13:48:10.330Z,9.73
2024-01-01T13:50:37.864Z,9.71
2024-01-01T13:53:06.144Z,9.79
2024-01-01T13:55:37.174Z,9.86
2024-01-01T13:58:06.163Z,9.80
2024-01-01T14:00:33.527Z,9.89
2024-01-01T14:03:00.401Z,9.91
2024-01-01T14:05:28.619Z,9.94
2024-01-01T14:07:55.731Z,10.04
2024-01-01T14:10:22.499Z,10.03
2024-01-01T14:12:49.816Z,10.02
2024-01-01T14:15:22.343Z,9.84
2024-01-01T14:17:53.814Z,9.89
2024-01-01T14:20:23.773Z,9.94
2024-01-01T14:22:50.695Z,9.97
2024-01-01T14:25:18.069Z,9.99
2024-01-01T14:27:44.815Z,9.94
2024-01-01T14:30:12.132Z,9.93
2024-01-01T14:32:39.376Z,9.92
2024-01-01T14:35:06.653Z,9.85
2024-01-01T14:37:33.422Z,9.79
2024-01-01T14:40:00.250Z,9.71
2024-01-01T14:42:26.998Z,9.76
2024-01-01T14:44:53.689Z,9.74
2024-01-01T14:47:20.484Z,9.71
2024-01-01T14:49:48.024Z,9.77
2024-01-01T14:52:18.473Z,9.85
2024-01-01T14:54:45.277Z,9.91
2024-01-01T14:57:12.878Z,9.92
2024-01-01T14:59:39.575Z,9.92
2024-01-01T15:02:07.016Z,9.78
2024-01-01T15:04:34.795Z,9.85
2024-01-01T15:07:05.450Z,9.89
2024-01-01T15:09:37.443Z,9.96
2024-01-01T15:12:07.298Z,9.89
2024-01-01T15:14:34.958Z,9.87
2024-01-01T15:17:02.486Z,9.85
2024-01-01T15:19:29.388Z,9.85
2024-01-01T15:21:56.134Z,9.84
2024-01-01T15:24:23.002Z,9.73
2024-01-01T15:26:50.664Z,9.74
2024-01-01T15:29:18.470Z,9.78
2024-01-01T15:31:45.329Z,9.84
2024-01-01T15:34:12.882Z,9.74
2024-01-01T15:36:42.570Z,9.66
2024-01-01T15:39:14.457Z,9.68
2024-01-01T15:41:42.009Z,9.64
2024-01-01T15:44:09.486Z,9.65
2024-01-01T15:46:36.931Z,9.70
2024-01-01T15:49:04.718Z,9.73
2024-01-01T15:51:39.075Z,9.70
2024-01-01T15:54:07.404Z,9.63
2024-01-01T15:56:34.524Z,9.67
2024-01-01T15:59:01.280Z,9.68
2024-01-01T16:01:28.090Z,9.65
2024-01-01T16:03:56.247Z,9.68
2024-01-01T16:06:23.612Z,9.69
2024-01-01T16:08:50.586Z,9.72
2024-01-01T16:11:22.228Z,9.75
2024-01-01T16:13:50.074Z,9.65
2024-01-01T16:16:20.057Z,9.56
2024-01-01T16:18:47.508Z,9.44
2024-01-01T16:21:14.964Z,9.44
2024-01-01T16:23:42.029Z,9.47
2024-01-01T16:26:10.406Z,9.50
2024-01-01T16:28:37.363Z,9.56
2024-01-01T16:31:05.352Z,9.62
2024-01-01T16:33:32.597Z,9.60
2024-01-01T16:36:02.822Z,9.61
2024-01-01T16:38:29.727Z,9.68
2024-01-01T16:40:56.622Z,9.60
2024-01-01T16:43:23.465Z,9.67
2024-01-01T16:45:50.356Z,9.66
2024-01-01T16:48:17.170Z,9.56
2024-01-01T16:50:48.847Z,9.41
2024-01-01T16:53:15.788Z,9.41
2024-01-01T16:55:43.882Z,9.44
2024-01-01T16:58:10.605Z,9.39
2024-01-01T17:00:37.336Z,9.31
2024-01-01T17:03:05.444Z,9.40
2024-01-01T17:05:32.667Z,9.39
2024-01-01T17:07:59.556Z,9.36
2024-01-01T17:10:26.310Z,9.22
2024-01-01T17:12:53.440Z,9.26
2024-01-01T17:15:20.635Z,9.24
2024-01-01T17:17:48.042Z,9.20
2024-01-01T17:20:14.964Z,9.21
2024-01-01T17:22:41.791Z,9.22
2024-01-01T17:25:09.146Z,9.25
2024-01-01T17:27:36.513Z,9.25
2024-01-01T17:30:04.442Z,9.27
2024-01-01T17:32:31.843Z,9.32
2024-01-01T17:34:59.484Z,9.34
2024-01-01T17:37:26.991Z,9.27
2024-01-01T17:39:53.716Z,9.30
2024-01-01T17:42:20.433Z,9.27
2024-01-01T17:44:47.602Z,9.28
2024-01-01T17:47:14.949Z,9.30
2024-01-01T17:49:51.467Z,9.30
2024-01-01T17:52:18.771Z,9.25
2024-01-01T17:54:45.793Z,9.34
2024-01-01T17:57:13.277Z,9.32
2024-01-01T17:59:40.058Z,9.29
2024-01-01T18:02:08.280Z,9.33
2024-01-01T18:04:35.019Z,9.36
2024-01-01T18:07:01.817Z,9.21
2024-01-01T18:09:28.531Z,9.24
2024-01-01T18:11:55.232Z,9.14
2024-01-01T18:14:22.051Z,9.05
2024-01-01T18:16:48.843Z,9.08
2024-01-01T18:19:15.724Z,9.07
2024-01-01T18:21:43.387Z,9.01
2024-01-01T18:24:11.382Z,8.94
2024-01-01T18:26:38.173Z,8.88
2024-01-01T18:29:04.910Z,8.92
2024-01-01T18:31:31.747Z,8.83
2024-01-01T18:33:58.574Z,8.82
2024-01-01T18:36:26.129Z,8.75
2024-01-01T18:38:52.905Z,8.79
2024-01-01T18:41:20.758Z,8.85
2024-01-01T18:43:48.062Z,8.85
2024-01-01T18:46:15.506Z,8.62
2024-01-01T18:48:43.300Z,8.65
2024-01-01T18:51:10.433Z,8.55
2024-01-01T18:53:40.564Z,8.58
2024-01-01T18:56:07.530Z,8.60
2024-01-01T18:58:34.877Z,8.67
2024-01-01T19:01:02.456Z,8.69
2024-01-01T19:03:29.339Z,8.71
2024-01-01T19:05:58.338Z,8.60
2024-01-01T19:08:26.729Z,8.60
2024-01-01T19:10:53.661Z,8.64
2024-01-01T19:13:20.524Z,8.63
2024-01-01T19:15:47.861Z,8.63
2024-01-01T19:18:15.382Z,8.56
2024-01-01T19:20:42.201Z,8.61
2024-01-01T19:23:09.949Z,8.41
2024-01-01T19:25:37.486Z,8.44
2024-01-01T19:28:04.475Z,8.40
2024-01-01T19:30:31.690Z,8.28
2024-01-01T19:32:58.566Z,8.39
2024-01-01T19:35:25.568Z,8.37
2024-01-01T19:37:52.438Z,8.32
2024-01-01T19:40:21.044Z,8.38
2024-01-01T19:42:48.682Z,8.31
2024-01-01T19:45:15.642Z,8.31
2024-01-01T19:47:45.234Z,8.33
2024-01-01T19:50:12.996Z,8.12
2024-01-01T19:52:40.020Z,8.20
2024-01-01T19:55:07.737Z,8.11
2024-01-01T19:57:35.714Z,8.19
2024-01-01T20:00:04.538Z,8.13
2024-01-01T20:02:32.122Z,8.17
2024-01-01T20:04:59.300Z,8.19
2024-01-01T20:07:26.072Z,8.10
2024-01-01T20:09:53.298Z,8.15
2024-01-01T20:12:20.288Z,8.21
2024-01-01T20:14:46.999Z,8.19
2024-01-01T20:17:13.765Z,8.28
2024-01-01T20:19:40.709Z,8.36
2024-01-01T20:22:07.864Z,8.19
2024-01-01T20:24:34.604Z,8.23
2024-01-01T20:27:01.303Z,8.26
2024-01-01T20:29:28.050Z,8.31
2024-01-01T20:31:54.834Z,8.27
2024-01-01T20:34:23.678Z,8.31
2024-01-01T20:36:50.511Z,8.27
2024-01-01T20:39:17.227Z,8.21
2024-01-01T20:41:45.642Z,8.19
2024-01-01T20:44:12.557Z,8.29
2024-01-01T20:46:39.394Z,8.21
2024-01-01T20:49:06.449Z,8.24
2024-01-01T20:51:33.345Z,8.22
2024-01-01T20:54:03.683Z,8.26
2024-01-01T20:56:31.548Z,8.12
2024-01-01T20:58:58.525Z,8.16
2024-01-01T21:01:25.438Z,8.11
2024-01-01T21:03:52.644Z,8.19
2024-01-01T21:06:19.823Z,8.28
2024-01-01T21:08:46.723Z,8.25
2024-01-01T21:11:13.433Z,8.27
2024-01-01T21:13:40.246Z,8.17
2024-01-01T21:16:07.367Z,8.23
2024-01-01T21:18:34.495Z,8.12
2024-01-01T21:21:01.570Z,8.13
2024-01-01T21:23:28.692Z,7.98
2024-01-01T21:25:56.695Z,8.08
2024-01-01T21:28:23.635Z,8.10
2024-01-01T21:30:50.487Z,8.04
2024-01-01T21:33:17.324Z,8.07
2024-01-01T21:35:44.188Z,8.13
2024-01-01T21:38:10.946Z,8.17
2024-01-01T21:40:37.908Z,8.14
2024-01-01T21:43:07.712Z,8.17
2024-01-01T21:45:34.920Z,8.19
2024-01-01T21:48:03.840Z,8.17
2024-01-01T21:50:33.650Z,8.18
2024-01-01T21:53:01.038Z,8.26
2024-01-01T21:55:27.799Z,8.24
2024-01-01T21:57:54.606Z,8.21
2024-01-01T22:00:21.423Z,8.33
2024-01-01T22:02:50.480Z,8.28
2024-01-01T22:05:18.599Z,8.21
2024-01-01T22:07:45.458Z,8.24
2024-01-01T22:10:12.922Z,8.26
2024-01-01T22:12:41.119Z,8.24
2024-01-01T22:15:09.338Z,8.25
2024-01-01T22:17:36.272Z,8.21
2024-01-01T22:20:03.255Z,8.22
2024-01-01T22:22:29.990Z,8.23
2024-01-01T22:24:56.694Z,8.27
2024-01-01T22:27:23.490Z,8.28
2024-01-01T22:29:50.208Z,8.18
2024-01-01T22:32:16.923Z,8.13
2024-01-01T22:34:43.666Z,8.16
2024-01-01T22:37:10.346Z,8.16
2024-01-01T22:39:37.044Z,8.24
2024-01-01T22:42:04.100Z,8.30
2024-01-01T22:44:31.009Z,8.26
2024-01-01T22:46:57.785Z,8.20
2024-01-01T22:49:24.558Z,8.22
2024-01-01T22:51:51.300Z,8.22
2024-01-01T22:54:18.120Z,8.25
2024-01-01T22:56:45.397Z,8.20
2024-01-01T22:59:12.230Z,8.21
2024-01-01T23:01:39.078Z,8.08
2024-01-01T23:04:05.823Z,8.14
2024-01-01T23:06:33.711Z,8.04
2024-01-01T23:09:00.818Z,8.09
2024-01-01T23:11:27.832Z,8.09
2024-01-01T23:13:54.791Z,8.10
2024-01-01T23:16:21.546Z,8.08
2024-01-01T23:18:48.855Z,8.07
2024-01-01T23:21:16.168Z,8.03
2024-01-01T23:23:43.735Z,8.04
2024-01-01T23:26:12.524Z,8.10
2024-01-01T23:28:41.693Z,8.10
2024-01-01T23:31:08.494Z,8.13
2024-01-01T23:33:35.441Z,8.16
2024-01-01T23:36:02.398Z,8.16
2024-01-01T23:38:29.263Z,8.20
2024-01-01T23:40:56.073Z,8.13
2024-01-01T23:43:22.817Z,8.12
2024-01-01T23:45:49.764Z,8.15
2024-01-01T23:48:16.803Z,8.21
2024-01-01T23:50:48.935Z,8.08
2024-01-01T23:53:16.165Z,8.16
2024-01-01T23:55:42.948Z,8.08
2024-01-01T23:58:09.647Z,8.17
